createdAt,value
2023-03-25T00:03:18.028Z,9.70
2023-03-25T00:08:22.439Z,10.35
2023-03-25T00:13:32.106Z,10.18
2023-03-25T00:18:38.040Z,9.77
2023-03-25T00:23:43.247Z,10.80
2023-03-25T00:28:48.875Z,13.43
2023-03-25T00:33:53.373Z,12.57
2023-03-25T00:38:57.771Z,18.00
2023-03-25T00:44:04.875Z,12.07
2023-03-25T00:49:09.095Z,15.25
2023-03-25T00:54:13.646Z,21.60
2023-03-25T00:59:19.160Z,15.73
2023-03-25T01:04:23.656Z,18.45
2023-03-25T01:09:27.911Z,10.02
2023-03-25T01:14:33.481Z,24.05
2023-03-25T01:19:38.405Z,11.75
2023-03-25T01:24:43.036Z,8.75
2023-03-25T01:29:48.605Z,8.05
2023-03-25T01:34:52.948Z,6.70
2023-03-25T01:39:57.093Z,11.82
2023-03-25T01:45:21.338Z,7.53
2023-03-25T01:50:29.401Z,4.90
2023-03-25T01:55:35.770Z,6.30
2023-03-25T02:00:44.723Z,4.97
2023-03-25T02:05:57.157Z,3.75
2023-03-25T02:11:01.843Z,9.45
2023-03-25T02:16:27.369Z,5.40
2023-03-25T02:22:15.380Z,4.35
2023-03-25T02:27:34.180Z,7.40
2023-03-25T02:33:06.067Z,6.37
2023-03-25T02:38:26.715Z,5.13
2023-03-25T02:43:34.865Z,6.82
2023-03-25T02:48:46.225Z,8.07
2023-03-25T02:53:54.707Z,6.15
2023-03-25T02:58:59.270Z,7.45
2023-03-25T03:04:03.667Z,7.95
2023-03-25T03:09:25.780Z,5.78
2023-03-25T03:14:45.078Z,5.90
2023-03-25T03:19:54.247Z,7.85
2023-03-25T03:25:06.410Z,7.32
2023-03-25T03:30:15.180Z,6.55
2023-03-25T03:35:25.795Z,5.28
2023-03-25T03:40:34.826Z,8.90
2023-03-25T03:45:41.914Z,8.65
2023-03-25T03:50:50.846Z,4.97
2023-03-25T03:56:02.237Z,8.57
2023-03-25T04:01:11.788Z,5.43
2023-03-25T04:06:24.694Z,6.30
2023-03-25T04:11:37.257Z,6.65
2023-03-25T04:16:45.903Z,8.05
2023-03-25T04:21:50.526Z,7.72
2023-03-25T04:26:57.989Z,5.97
2023-03-25T04:32:03.002Z,8.07
2023-03-25T04:37:07.609Z,6.22
2023-03-25T04:42:14.267Z,8.05
2023-03-25T04:47:24.678Z,6.03
2023-03-25T04:52:29.109Z,8.02
2023-03-25T04:57:35.031Z,10.55
2023-03-25T05:02:39.649Z,17.38
2023-03-25T05:07:45.656Z,14.50
2023-03-25T05:12:52.465Z,15.80
2023-03-25T05:17:56.834Z,21.75
2023-03-25T05:23:01.307Z,13.18
2023-03-25T05:28:10.111Z,13.32
2023-03-25T05:33:16.672Z,12.77
2023-03-25T05:38:21.201Z,11.60
2023-03-25T05:43:27.009Z,9.98
2023-03-25T05:48:32.583Z,12.85
2023-03-25T05:53:37.676Z,8.45
2023-03-25T05:58:43.679Z,20.23
2023-03-25T06:03:48.440Z,10.10
2023-03-25T06:08:53.149Z,12.15
2023-03-25T06:13:59.391Z,11.43
2023-03-25T06:19:05.338Z,12.15
2023-03-25T06:24:12.506Z,8.60
2023-03-25T06:29:18.768Z,10.48
2023-03-25T06:34:23.716Z,10.25
2023-03-25T06:39:31.392Z,10.88
2023-03-25T06:44:39.110Z,13.32
2023-03-25T06:49:43.283Z,10.10
2023-03-25T06:54:47.491Z,10.20
2023-03-25T06:59:53.120Z,10.82
2023-03-25T07:04:57.557Z,9.45
2023-03-25T07:10:02.629Z,15.07
2023-03-25T07:15:09.965Z,8.30
2023-03-25T07:20:18.938Z,9.40
2023-03-25T07:25:23.484Z,6.93
2023-03-25T07:30:29.093Z,9.27
2023-03-25T07:35:33.342Z,12.45
2023-03-25T07:40:37.723Z,7.90
2023-03-25T07:45:43.689Z,7.32
2023-03-25T07:50:49.756Z,8.20
2023-03-25T07:55:54.344Z,3.83
2023-03-25T08:01:00.138Z,6.97
2023-03-25T08:06:04.634Z,7.70
2023-03-25T08:11:09.204Z,5.75
2023-03-25T08:16:16.319Z,4.93
2023-03-25T08:21:25.879Z,4.78
2023-03-25T08:31:38.913Z,6.72
2023-03-25T08:36:43.388Z,6.10
2023-03-25T08:41:47.952Z,4.60
2023-03-25T08:46:53.557Z,7.70
2023-03-25T08:51:59.324Z,5.55
2023-03-25T08:57:04.448Z,5.65
2023-03-25T09:02:11.958Z,4.07
2023-03-25T09:07:16.237Z,5.53
2023-03-25T09:12:20.471Z,4.25
2023-03-25T09:17:26.465Z,4.38
2023-03-25T09:22:30.849Z,3.70
2023-03-25T09:27:35.900Z,7.15
2023-03-25T09:32:41.862Z,5.20
2023-03-25T09:37:51.838Z,11.63
2023-03-25T09:43:08.704Z,6.18
2023-03-25T09:48:24.587Z,6.65
2023-03-25T09:53:36.885Z,4.38
2023-03-25T09:58:45.761Z,8.45
2023-03-25T10:04:00.858Z,7.27
2023-03-25T10:09:27.425Z,7.25
2023-03-25T10:14:39.648Z,7.97
2023-03-25T10:19:55.940Z,22.38
2023-03-25T10:25:04.257Z,18.40
2023-03-25T10:30:15.685Z,13.07
2023-03-25T10:35:25.457Z,47.78
2023-03-25T10:40:34.967Z,36.38
2023-03-25T10:45:42.701Z,18.33
2023-03-25T10:50:49.885Z,12.45
2023-03-25T10:55:59.156Z,47.20
2023-03-25T11:01:12.365Z,6.68
2023-03-25T11:06:26.813Z,5.80
2023-03-25T11:11:35.069Z,5.30
2023-03-25T11:16:46.241Z,2.67
2023-03-25T11:21:58.394Z,17.92
2023-03-25T11:27:04.291Z,5.55
2023-03-25T11:32:10.152Z,3.63
2023-03-25T11:37:21.204Z,28.90
2023-03-25T11:42:33.294Z,4.85
2023-03-25T11:47:40.672Z,16.50
2023-03-25T11:52:48.242Z,6.50
2023-03-25T11:57:53.970Z,3.42
2023-03-25T12:03:02.365Z,7.65
2023-03-25T12:08:15.658Z,7.05
2023-03-25T12:13:33.599Z,18.17
2023-03-25T12:18:50.331Z,6.05
2023-03-25T12:24:08.420Z,5.78
2023-03-25T12:29:27.148Z,7.80
2023-03-25T12:34:44.735Z,13.05
2023-03-25T12:40:09.360Z,10.13
2023-03-25T12:45:29.907Z,21.60
2023-03-25T12:50:50.970Z,3.40
2023-03-25T12:56:10.752Z,4.90
2023-03-25T13:01:26.412Z,6.70
2023-03-25T13:06:37.323Z,4.45
2023-03-25T13:11:48.042Z,4.93
2023-03-25T13:16:56.737Z,4.57
2023-03-25T13:22:05.767Z,5.80
2023-03-25T13:27:15.526Z,4.33
2023-03-25T13:37:30.971Z,2.20
2023-03-25T13:42:44.760Z,3.42
2023-03-25T13:47:55.371Z,3.42
2023-03-25T13:53:06.729Z,5.80
2023-03-25T13:58:51.504Z,2.95
2023-03-25T14:04:20.779Z,2.58
2023-03-25T14:09:52.496Z,2.22
2023-03-25T14:15:01.801Z,1.92
2023-03-25T14:20:12.668Z,4.00
2023-03-25T14:25:23.432Z,28.25
2023-03-25T14:30:30.296Z,11.43
2023-03-25T14:35:51.623Z,15.50
2023-03-25T14:41:03.441Z,11.18
2023-03-25T14:46:22.088Z,9.02
2023-03-25T14:51:50.650Z,9.57
2023-03-25T14:57:01.957Z,5.22
2023-03-25T15:02:16.692Z,7.43
2023-03-25T15:07:41.121Z,4.85
2023-03-25T15:12:46.282Z,5.97
2023-03-25T15:17:51.887Z,4.80
2023-03-25T15:23:33.350Z,3.55
2023-03-25T15:28:50.160Z,5.45
2023-03-25T15:34:12.691Z,3.63
2023-03-25T15:39:37.015Z,6.43
2023-03-25T15:45:11.280Z,7.80
2023-03-25T15:50:42.028Z,9.27
2023-03-25T15:55:52.800Z,14.50
2023-03-25T16:01:04.992Z,13.20
2023-03-25T16:06:17.201Z,12.30
2023-03-25T16:11:31.565Z,9.48
2023-03-25T16:16:40.937Z,8.55
2023-03-25T16:21:49.385Z,8.77
2023-03-25T16:26:54.155Z,9.15
2023-03-25T16:32:00.206Z,7.13
2023-03-25T16:37:07.360Z,8.10
2023-03-25T16:42:19.705Z,10.23
2023-03-25T16:47:25.020Z,22.85
2023-03-25T16:52:35.261Z,19.20
2023-03-25T16:57:41.377Z,14.48
2023-03-25T17:02:48.684Z,15.63
2023-03-25T17:08:03.557Z,43.17
2023-03-25T17:13:11.050Z,46.17
2023-03-25T17:18:18.442Z,40.22
2023-03-25T17:23:34.623Z,11.90
2023-03-25T17:28:42.602Z,25.55
2023-03-25T17:33:51.192Z,15.02
2023-03-25T17:38:58.776Z,16.57
2023-03-25T17:44:03.367Z,15.57
2023-03-25T17:49:16.798Z,42.90
2023-03-25T17:54:22.807Z,29.17
2023-03-25T17:59:27.507Z,21.55
2023-03-25T18:04:31.658Z,37.25
2023-03-25T18:09:41.423Z,20.88
2023-03-25T18:14:45.988Z,25.00
2023-03-25T18:19:50.859Z,19.83
2023-03-25T18:24:58.835Z,29.83
2023-03-25T18:30:07.347Z,56.60
2023-03-25T18:35:11.900Z,34.78
2023-03-25T18:40:24.532Z,52.58
2023-03-25T18:45:29.032Z,48.15
2023-03-25T18:50:35.092Z,46.42
2023-03-25T18:55:44.145Z,52.83
2023-03-25T19:00:49.568Z,55.23
2023-03-25T19:05:54.341Z,40.63
2023-03-25T19:11:11.755Z,53.90
2023-03-25T19:16:24.038Z,44.80
2023-03-25T19:21:28.361Z,24.50
2023-03-25T19:26:33.974Z,43.83
2023-03-25T19:31:38.774Z,33.33
2023-03-25T19:36:42.973Z,30.13
2023-03-25T19:41:49.686Z,36.47
2023-03-25T19:46:53.968Z,52.47
2023-03-25T19:51:58.398Z,85.70
2023-03-25T19:57:04.763Z,30.60
2023-03-25T20:02:09.061Z,39.85
2023-03-25T20:07:13.664Z,64.65
2023-03-25T20:12:19.638Z,37.28
2023-03-25T20:17:24.535Z,69.25
2023-03-25T20:22:29.648Z,30.75
2023-03-25T20:27:35.550Z,24.35
2023-03-25T20:32:42.122Z,41.42
2023-03-25T20:37:49.130Z,41.20
2023-03-25T20:42:55.043Z,46.53
2023-03-25T20:47:59.883Z,28.10
2023-03-25T20:53:04.549Z,26.17
2023-03-25T20:58:11.583Z,19.10
2023-03-25T21:03:16.492Z,10.43
2023-03-25T21:08:20.775Z,24.77
2023-03-25T21:13:28.852Z,18.00
2023-03-25T21:18:33.042Z,17.13
2023-03-25T21:23:43.025Z,16.83
2023-03-25T21:28:49.970Z,11.15
2023-03-25T21:33:56.712Z,9.05
2023-03-25T21:39:02.790Z,10.48
2023-03-25T21:44:09.083Z,13.65
2023-03-25T21:49:14.291Z,10.10
2023-03-25T21:54:19.269Z,21.23
2023-03-25T21:59:25.330Z,33.58
2023-03-25T22:04:29.549Z,11.90
2023-03-25T22:09:33.935Z,14.38
2023-03-25T22:14:39.705Z,3.92
2023-03-25T22:19:43.842Z,5.55
2023-03-25T22:24:48.155Z,7.50
2023-03-25T22:29:53.785Z,3.10
2023-03-25T22:34:58.564Z,5.00
2023-03-25T22:40:03.268Z,4.07
2023-03-25T22:45:10.203Z,4.25
2023-03-25T22:50:14.625Z,5.78
2023-03-25T22:55:19.075Z,8.13
2023-03-25T23:00:27.118Z,6.85
2023-03-25T23:05:31.502Z,8.30
2023-03-25T23:10:35.682Z,15.38
2023-03-25T23:15:41.405Z,9.50
2023-03-25T23:20:49.858Z,10.63
2023-03-25T23:26:05.755Z,7.38
2023-03-25T23:31:13.373Z,5.38
2023-03-25T23:36:20.051Z,4.65
2023-03-25T23:41:26.052Z,6.70
2023-03-25T23:46:32.304Z,6.70
2023-03-25T23:51:38.700Z,6.70
2023-03-25T23:56:43.525Z,6.78
